createdAt,value
2022-09-04T00:04:17.363Z,13.03
2022-09-04T00:14:29.700Z,12.89
2022-09-04T00:24:40.971Z,12.78
2022-09-04T00:34:59.926Z,12.63
2022-09-04T00:45:27.754Z,12.55
2022-09-04T00:55:52.666Z,12.45
2022-09-04T01:06:14.481Z,12.31
2022-09-04T01:16:26.826Z,12.16
2022-09-04T01:26:41.424Z,12.07
2022-09-04T01:36:56.905Z,11.99
2022-09-04T01:47:12.453Z,11.85
2022-09-04T01:57:31.200Z,11.69
2022-09-04T02:07:46.770Z,11.57
2022-09-04T02:18:11.623Z,11.46
2022-09-04T02:28:30.185Z,11.34
2022-09-04T02:38:44.049Z,11.13
2022-09-04T02:49:03.566Z,10.82
2022-09-04T02:59:32.548Z,10.73
2022-09-04T03:09:44.541Z,10.70
2022-09-04T03:19:57.283Z,10.68
2022-09-04T03:30:07.727Z,10.72
2022-09-04T03:40:34.937Z,10.74
2022-09-04T03:50:49.892Z,10.72
2022-09-04T04:01:06.744Z,10.76
2022-09-04T04:11:47.944Z,10.80
2022-09-04T04:22:10.205Z,10.96
2022-09-04T04:32:34.014Z,11.09
2022-09-04T04:42:48.192Z,11.27
2022-09-04T04:53:03.614Z,11.53
2022-09-04T05:03:19.170Z,11.82
2022-09-04T05:13:28.361Z,12.24
2022-09-04T05:23:42.744Z,14.62
2022-09-04T05:33:57.585Z,22.85
2022-09-04T05:44:16.042Z,28.68
2022-09-04T05:54:54.756Z,32.45
2022-09-04T06:05:21.268Z,35.00
2022-09-04T06:15:38.142Z,37.38
2022-09-04T06:26:01.091Z,38.74
2022-09-04T06:36:38.885Z,39.58
2022-09-04T06:46:51.659Z,40.38
2022-09-04T06:57:14.323Z,41.42
2022-09-04T07:07:28.568Z,41.13
2022-09-04T07:17:39.485Z,42.63
2022-09-04T07:28:02.597Z,41.92
2022-09-04T07:38:17.570Z,41.19
2022-09-04T07:48:30.494Z,39.24
2022-09-04T07:58:55.071Z,36.90
2022-09-04T08:09:33.946Z,36.71
2022-09-04T08:19:49.481Z,34.83
2022-09-04T08:30:04.958Z,35.46
2022-09-04T08:40:45.415Z,35.58
2022-09-04T08:51:29.679Z,28.99
2022-09-04T09:01:58.010Z,25.79
2022-09-04T09:12:26.592Z,23.93
2022-09-04T09:23:21.009Z,22.91
2022-09-04T09:34:02.878Z,21.86
2022-09-04T09:44:39.847Z,21.37
2022-09-04T09:55:23.939Z,21.07
2022-09-04T10:05:57.188Z,20.99
2022-09-04T10:16:45.287Z,20.86
2022-09-04T10:27:29.920Z,20.90
2022-09-04T10:37:54.235Z,20.89
2022-09-04T10:48:31.096Z,21.10
2022-09-04T10:58:50.636Z,21.43
2022-09-04T11:09:36.607Z,21.30
2022-09-04T11:20:21.902Z,20.84
2022-09-04T11:30:36.326Z,21.07
2022-09-04T11:41:21.622Z,21.06
2022-09-04T11:51:49.463Z,21.05
2022-09-04T12:02:02.459Z,20.53
2022-09-04T12:12:33.259Z,20.37
2022-09-04T12:23:02.791Z,20.66
2022-09-04T12:33:26.730Z,20.54
2022-09-04T12:43:50.786Z,20.31
2022-09-04T12:54:25.048Z,20.41
2022-09-04T13:04:39.844Z,20.37
2022-09-04T13:15:19.418Z,20.30
2022-09-04T13:25:42.392Z,20.47
2022-09-04T13:36:11.435Z,20.78
2022-09-04T13:46:21.198Z,21.00
2022-09-04T13:56:33.460Z,20.98
2022-09-04T14:06:40.146Z,20.93
2022-09-04T14:16:46.116Z,21.07
2022-09-04T14:27:01.014Z,21.27
2022-09-04T14:37:16.226Z,20.90
2022-09-04T14:47:34.717Z,20.54
2022-09-04T14:57:44.027Z,20.28
2022-09-04T15:08:00.280Z,19.94
2022-09-04T15:18:15.986Z,19.61
2022-09-04T15:28:30.139Z,19.35
2022-09-04T15:38:36.910Z,19.19
2022-09-04T15:48:53.504Z,19.25
2022-09-04T15:59:08.535Z,19.46
2022-09-04T16:09:24.394Z,19.39
2022-09-04T16:19:33.772Z,19.20
2022-09-04T16:29:46.358Z,19.06
2022-09-04T16:40:13.645Z,18.89
2022-09-04T16:50:27.357Z,18.67
2022-09-04T17:00:50.322Z,18.35
2022-09-04T17:11:05.588Z,18.04
2022-09-04T17:28:14.894Z,17.74
2022-09-04T17:32:57.000Z,17.40
2022-09-04T17:43:12.951Z,17.00
2022-09-04T17:53:33.218Z,16.64
2022-09-04T18:04:19.721Z,16.28
2022-09-04T18:14:24.388Z,15.97
2022-09-04T18:24:35.843Z,15.63
2022-09-04T18:37:19.204Z,15.33
2022-09-04T18:50:44.951Z,15.06
2022-09-04T18:55:50.061Z,14.71
2022-09-04T19:06:00.868Z,14.39
2022-09-04T19:16:11.865Z,14.13
2022-09-04T19:26:27.942Z,13.75
2022-09-04T19:36:38.484Z,13.44
2022-09-04T19:47:01.755Z,13.14
2022-09-04T19:57:32.036Z,12.91
2022-09-04T20:07:47.055Z,12.69
2022-09-04T20:18:08.494Z,12.50
2022-09-04T20:28:32.576Z,12.58
2022-09-04T20:38:46.452Z,13.01
2022-09-04T20:53:06.019Z,13.35
2022-09-04T21:03:12.855Z,13.57
2022-09-04T21:10:17.235Z,13.60
2022-09-04T21:21:00.596Z,13.51
2022-09-04T21:31:14.253Z,13.52
2022-09-04T21:41:33.102Z,13.58
2022-09-04T21:52:02.658Z,13.61
2022-09-04T22:02:38.829Z,13.64
2022-09-04T22:13:28.353Z,13.65
2022-09-04T22:23:56.423Z,13.62
2022-09-04T22:34:41.334Z,13.56
2022-09-04T22:45:09.731Z,13.52
2022-09-04T22:56:00.698Z,13.31
2022-09-04T23:10:34.028Z,13.09
2022-09-04T23:17:23.164Z,12.92
2022-09-04T23:27:34.129Z,12.84
2022-09-04T23:38:00.253Z,12.72
2022-09-04T23:48:25.488Z,12.60
2022-09-04T23:59:07.309Z,12.45
